Search for airport 
image banner adimage banner adimage banner ad
image banner ad

PA15 - Couillard

Located in Martins Creek, United States

ICAO - PA15, IATA -

Data provided by Airmate  

General information

Coordinates: N40°46'30" W75°8'29"
Elevation is 210 feet MSL.
Magnetic variation is -12° East
View others Airports in Pennsylvania

Operational data

Special qualification required
Current time UTC:
Current local time:
Weather at : KABE - Lehigh Valley Intl ( 29 km )
METAR: KABE 182351Z 25007KT 10SM CLR 23/07 A3024 RMK AO2 SLP238 60000 T02330067 10272 20233 55004
TAF: KABE 182320Z 1900/1924 VRB04KT P6SM SKC FM191600 32005KT P6SM SKC
View NOTAMs / SUP AIP / TFR affecting this airport [VIEW]
Communications frequencies: [VIEW]

Runways:

RWY identifierQFULength (ft)Width (ft)SurfaceLDA (ft)
10W3000200WATER
28W3000200WATER

Airport contact information

Address: Martins Creek United States

Satellite view of PA15